Keithville, Louisiana
Current Conditions -  °F | °C
As of 4:56 AM on Saturday 22 Nov 2014 (Local Time) from KSHV Reporting Station
Overcast Overcast  
Wind Chill: 57°   Ceiling: 8000
Heat Index: 57°   Visibility: 10mi
Dew Point: 52°   Wind: 9mph
Humidity: 83%   Direction: 130°SE
Pressure: 30.16"   Gusts: NA
Location:  32.33°N, 93.84°W
Report Text: KSHV 221056Z 13008KT 10SM FEW035 OVC080 14/11 A3016 RMK AO2 SLP210 T01390111
Loading
Personal Weather Stations






























Interactive Weather Map New forecast layout! Learn more

10-Day Weather Forecast

Advertisements
Track Severe Weather on mobile